Time;durP1;ratioP1;P1;durP2;ratioP2;P2;SDS_P1;SDS_P2;PMS_P1;PMS_P2;Temp;Humidity;BMP_temperature;BMP_pressure;BME280_temperature;BME280_humidity;BME280_pressure;Samples;Min_cycle;Max_cycle;Signal;HPM_P1;HPM_P2
2022/03/29 00:01:27;;;;;;;17.50;7.77;;;;;;;19.52;52.11;100118.69;5031135;28;20180;-60
2022/03/29 00:03:52;;;;;;;15.77;7.87;;;;;;;19.54;51.86;100110.50;5031002;28;20181;-60
2022/03/29 00:06:18;;;;;;;15.57;8.70;;;;;;;19.53;51.86;100112.56;5031469;28;20173;-60
2022/03/29 00:08:43;;;;;;;20.70;8.77;;;;;;;19.55;52.02;100106.44;5034449;28;20179;-60
2022/03/29 00:11:08;;;;;;;16.03;7.20;;;;;;;19.52;51.79;100108.03;5035490;28;20552;-60
2022/03/29 00:13:34;;;;;;;17.00;8.33;;;;;;;19.51;51.85;100097.81;5035093;28;20180;-60
2022/03/29 00:15:59;;;;;;;16.00;7.27;;;;;;;19.54;51.78;100102.75;5035562;28;20172;-60
2022/03/29 00:18:25;;;;;;;16.17;7.70;;;;;;;19.53;52.22;100085.97;5035448;28;20564;-60
2022/03/29 00:20:50;;;;;;;14.73;7.63;;;;;;;19.54;52.13;100084.75;5035238;28;20168;-60
2022/03/29 00:23:18;;;;;;;14.27;7.07;;;;;;;19.53;51.90;100088.84;5035180;28;20168;-60
2022/03/29 00:25:43;;;;;;;15.77;7.73;;;;;;;19.52;51.87;100079.41;5035281;28;20211;-60
2022/03/29 00:28:08;;;;;;;12.97;7.40;;;;;;;19.53;52.30;100074.50;5035340;28;20444;-60
2022/03/29 00:30:34;;;;;;;15.57;7.93;;;;;;;19.51;51.95;100080.63;5017420;28;20179;-60
2022/03/29 00:32:59;;;;;;;13.03;7.40;;;;;;;19.51;52.25;100074.91;5035192;28;20179;-60
2022/03/29 00:35:25;;;;;;;12.87;7.20;;;;;;;19.52;51.76;100067.16;5035231;28;20180;-60
2022/03/29 00:37:51;;;;;;;15.43;7.43;;;;;;;19.51;51.98;100060.59;5034828;28;20200;-60
2022/03/29 00:40:17;;;;;;;16.30;7.63;;;;;;;19.50;51.96;100056.06;5034556;28;20234;-60
2022/03/29 00:42:42;;;;;;;18.00;7.60;;;;;;;19.51;51.91;100049.13;5034844;28;20415;-60
2022/03/29 00:45:08;;;;;;;11.87;6.90;;;;;;;19.50;51.99;100050.34;5034791;28;20188;-60
2022/03/29 00:47:33;;;;;;;14.57;7.27;;;;;;;19.51;52.20;100056.91;5034720;28;20216;-60
2022/03/29 00:49:59;;;;;;;15.23;7.60;;;;;;;19.50;52.05;100053.22;5034703;28;20234;-60
2022/03/29 00:52:25;;;;;;;19.13;7.67;;;;;;;19.51;51.92;100048.31;5016919;28;20238;-60
2022/03/29 00:54:50;;;;;;;12.50;7.03;;;;;;;19.50;51.94;100040.94;5034820;28;20196;-60
2022/03/29 00:57:16;;;;;;;15.70;7.90;;;;;;;19.51;52.03;100054.84;5034539;28;20811;-60
2022/03/29 00:59:46;;;;;;;21.43;6.90;;;;;;;19.50;51.73;100050.34;5034279;28;20188;-60
2022/03/29 01:02:11;;;;;;;14.60;7.17;;;;;;;19.52;51.84;100042.19;5034585;28;20212;-60
2022/03/29 01:04:37;;;;;;;18.07;7.73;;;;;;;19.51;51.79;100039.72;5034574;28;20429;-60
2022/03/29 01:07:02;;;;;;;16.33;7.63;;;;;;;19.52;52.28;100036.44;5034561;28;20263;-60
2022/03/29 01:09:30;;;;;;;13.10;6.87;;;;;;;19.50;51.92;100038.91;5034679;28;20182;-60
2022/03/29 01:11:56;;;;;;;13.17;7.00;;;;;;;19.48;51.87;100032.75;5016260;28;20177;-60
2022/03/29 01:14:22;;;;;;;12.97;7.37;;;;;;;19.49;51.91;100028.66;5034134;28;20506;-60
2022/03/29 01:19:32;;;;;;;16.10;8.10;;;;;;;19.50;51.93;100030.31;5033585;28;20438;-60
2022/03/29 01:21:57;;;;;;;16.47;8.40;;;;;;;19.50;52.04;100020.88;5016474;28;20791;-60
2022/03/29 01:24:25;;;;;;;15.50;7.10;;;;;;;19.50;51.86;100026.63;5034312;28;20256;-60
2022/03/29 01:26:51;;;;;;;11.47;6.87;;;;;;;19.49;52.00;100028.66;5033911;28;20234;-60
2022/03/29 01:29:17;;;;;;;11.53;6.30;;;;;;;19.51;51.92;100013.97;5034052;28;20417;-60
2022/03/29 01:31:42;;;;;;;12.90;6.80;;;;;;;19.49;51.78;100010.66;5032783;28;20427;-60
2022/03/29 01:34:08;;;;;;;10.87;6.40;;;;;;;19.49;52.04;100007.78;5033267;28;20524;-60
2022/03/29 01:36:33;;;;;;;17.00;7.27;;;;;;;19.49;52.25;100000.03;5033820;28;20179;-60
2022/03/29 01:38:59;;;;;;;13.33;6.73;;;;;;;19.51;51.47;99997.59;5033844;28;20216;-60
2022/03/29 01:41:26;;;;;;;11.73;6.30;;;;;;;19.50;51.84;99997.97;5016458;28;20627;-60
2022/03/29 01:43:52;;;;;;;12.37;5.80;;;;;;;19.48;51.89;99994.69;5033943;28;20200;-60
2022/03/29 01:46:18;;;;;;;11.73;6.43;;;;;;;19.48;51.84;99988.97;5033274;28;20435;-60
2022/03/29 01:48:43;;;;;;;16.53;7.60;;;;;;;19.48;51.77;99992.69;5033589;28;20612;-60
2022/03/29 01:51:10;;;;;;;10.53;6.83;;;;;;;19.48;52.04;99986.94;5033712;28;20173;-60
2022/03/29 01:53:35;;;;;;;12.60;6.63;;;;;;;19.48;51.83;99986.09;5033894;28;20224;-60
2022/03/29 01:56:01;;;;;;;10.50;6.60;;;;;;;19.49;51.96;99982.03;5033456;28;20781;-60
2022/03/29 01:58:29;;;;;;;13.83;6.37;;;;;;;19.47;51.95;99978.75;5033600;28;20207;-60
2022/03/29 02:00:55;;;;;;;11.47;6.70;;;;;;;19.49;52.12;99982.03;5033477;28;20180;-60
2022/03/29 02:03:20;;;;;;;18.27;7.17;;;;;;;19.48;52.06;99989.81;5034092;28;20907;-60
2022/03/29 02:05:45;;;;;;;15.27;7.17;;;;;;;19.49;51.71;99984.88;5032910;28;20193;-60
2022/03/29 02:08:11;;;;;;;17.63;7.10;;;;;;;19.48;51.84;99981.22;5033383;28;20530;-60
2022/03/29 02:10:37;;;;;;;15.27;6.77;;;;;;;19.47;51.69;99979.53;5032847;28;20263;-60
2022/03/29 02:13:02;;;;;;;12.57;6.90;;;;;;;19.46;51.86;99980.78;5033222;28;20499;-60
2022/03/29 02:15:29;;;;;;;11.00;6.50;;;;;;;19.47;51.98;99982.41;5033041;28;20176;-60
2022/03/29 02:17:54;;;;;;;10.57;6.17;;;;;;;19.46;52.26;99977.91;5033152;28;20208;-59
2022/03/29 02:20:22;;;;;;;9.30;6.17;;;;;;;19.47;51.78;99976.69;5033206;28;20418;-59
2022/03/29 02:22:47;;;;;;;12.60;6.23;;;;;;;19.46;51.94;99983.63;5033215;28;20188;-60
2022/03/29 02:25:13;;;;;;;10.40;6.10;;;;;;;19.45;51.80;99979.13;5032973;28;20427;-60
2022/03/29 02:27:39;;;;;;;12.80;6.20;;;;;;;19.46;51.81;99975.03;5033172;28;20172;-60
2022/03/29 02:30:06;;;;;;;10.03;6.00;;;;;;;19.46;51.83;99972.19;5014960;28;20188;-60
2022/03/29 02:32:32;;;;;;;11.53;6.13;;;;;;;19.47;52.39;99973.81;5032195;28;20514;-60
2022/03/29 02:34:58;;;;;;;11.10;5.33;;;;;;;19.47;51.92;99970.16;5032754;28;20442;-60
2022/03/29 02:37:24;;;;;;;12.53;6.03;;;;;;;19.46;51.94;99965.66;5032593;28;20483;-60
2022/03/29 02:39:49;;;;;;;11.17;6.40;;;;;;;19.46;52.20;99959.94;5032822;28;20454;-60
2022/03/29 02:42:15;;;;;;;15.57;6.80;;;;;;;19.46;51.84;99960.72;5031959;28;20176;-60
2022/03/29 02:44:40;;;;;;;14.73;6.40;;;;;;;19.44;51.88;99954.59;5031407;28;20565;-59
2022/03/29 02:47:06;;;;;;;11.70;6.00;;;;;;;19.45;51.81;99950.50;5032481;28;20232;-59
2022/03/29 02:49:32;;;;;;;10.73;6.10;;;;;;;19.44;51.99;99951.72;5032700;28;20169;-60
2022/03/29 02:51:57;;;;;;;13.47;6.00;;;;;;;19.45;52.10;99947.63;5032551;28;20176;-60
2022/03/29 02:54:22;;;;;;;12.73;5.97;;;;;;;19.44;52.20;99943.13;5032147;28;20180;-60
2022/03/29 02:56:48;;;;;;;10.63;5.90;;;;;;;19.44;52.04;99936.56;5032498;28;20195;-60
2022/03/29 02:59:14;;;;;;;10.20;5.60;;;;;;;19.45;51.91;99933.31;5032244;28;20192;-59
2022/03/29 03:01:39;;;;;;;12.07;6.90;;;;;;;19.46;51.82;99931.28;5032318;28;20208;-59
2022/03/29 03:04:05;;;;;;;10.50;6.20;;;;;;;19.45;51.76;99935.34;5032199;28;20184;-59
2022/03/29 03:06:30;;;;;;;12.50;7.00;;;;;;;19.44;51.87;99928.00;5032446;28;20635;-60
2022/03/29 03:08:55;;;;;;;12.90;6.13;;;;;;;19.44;51.91;99930.84;5032351;28;20651;-59
2022/03/29 03:11:22;;;;;;;10.73;6.37;;;;;;;19.44;51.91;99928.81;5032171;28;20238;-60
2022/03/29 03:13:48;;;;;;;12.50;6.33;;;;;;;19.46;51.85;99934.16;5032385;28;20157;-59
2022/03/29 03:16:13;;;;;;;14.17;6.93;;;;;;;19.44;51.68;99939.44;5031503;28;20488;-59
2022/03/29 03:18:41;;;;;;;8.57;5.57;;;;;;;19.43;52.03;99935.78;5032281;28;20204;-60
2022/03/29 03:21:07;;;;;;;9.73;5.50;;;;;;;19.43;52.02;99932.91;5031960;28;20323;-60
2022/03/29 03:23:32;;;;;;;8.37;5.20;;;;;;;19.45;51.91;99936.19;5031840;28;20823;-60
2022/03/29 03:25:58;;;;;;;10.03;6.00;;;;;;;19.44;52.07;99931.69;5031866;28;20180;-60
2022/03/29 03:28:23;;;;;;;8.50;5.20;;;;;;;19.44;51.81;99930.84;5031739;28;20173;-60
2022/03/29 03:30:49;;;;;;;12.63;5.93;;;;;;;19.43;51.32;99932.91;5031754;28;20256;-60
2022/03/29 03:33:14;;;;;;;9.13;5.37;;;;;;;19.42;51.89;99930.44;5031992;28;20180;-60
2022/03/29 03:35:40;;;;;;;12.50;6.40;;;;;;;19.43;52.03;99932.91;5031792;28;20185;-60
2022/03/29 03:38:06;;;;;;;11.90;5.93;;;;;;;19.41;51.92;99938.19;5031983;28;20196;-60
2022/03/29 03:40:32;;;;;;;11.00;5.20;;;;;;;19.44;51.77;99917.38;5031524;28;20195;-59
2022/03/29 03:42:57;;;;;;;11.27;6.07;;;;;;;19.43;52.03;99921.47;5031438;28;20422;-59
2022/03/29 03:45:23;;;;;;;12.57;6.13;;;;;;;19.43;51.89;99926.34;5031381;28;20192;-60
2022/03/29 03:47:48;;;;;;;8.83;5.30;;;;;;;19.44;51.78;99925.13;5031529;28;20220;-60
2022/03/29 03:50:14;;;;;;;8.90;6.13;;;;;;;19.42;52.83;99922.66;5031512;28;20246;-60
2022/03/29 03:52:39;;;;;;;10.57;5.60;;;;;;;19.41;51.84;99915.28;5031773;28;20268;-59
2022/03/29 03:55:05;;;;;;;10.53;6.43;;;;;;;19.42;52.29;99916.13;5031524;28;20175;-59
2022/03/29 03:57:31;;;;;;;14.90;5.23;;;;;;;19.41;51.74;99921.00;5031409;28;20211;-59
2022/03/29 03:59:56;;;;;;;10.87;5.37;;;;;;;19.41;51.97;99912.44;5031344;28;20172;-59
2022/03/29 04:02:22;;;;;;;9.10;5.30;;;;;;;19.41;51.96;99903.84;5031601;28;20180;-60
2022/03/29 04:04:48;;;;;;;14.77;5.27;;;;;;;19.41;51.91;99895.25;5031505;28;20176;-60
2022/03/29 04:07:14;;;;;;;11.90;6.13;;;;;;;19.42;51.85;99898.94;5030647;28;20481;-60
2022/03/29 04:09:39;;;;;;;8.90;5.37;;;;;;;19.41;51.93;99889.53;5031801;28;20676;-60
2022/03/29 04:12:05;;;;;;;9.73;4.97;;;;;;;19.41;51.86;99895.25;5031271;28;20180;-60
2022/03/29 04:14:31;;;;;;;9.20;5.50;;;;;;;19.42;51.83;99887.50;5030831;28;20189;-60
2022/03/29 04:16:56;;;;;;;9.60;5.40;;;;;;;19.40;51.72;99890.75;5029734;28;20502;-60
2022/03/29 04:19:22;;;;;;;7.90;5.30;;;;;;;19.42;51.80;99890.38;5030976;28;20212;-60
2022/03/29 04:21:47;;;;;;;7.83;4.83;;;;;;;19.41;51.89;99895.25;5031204;28;20185;-59
2022/03/29 04:24:13;;;;;;;9.40;5.53;;;;;;;19.40;51.88;99893.63;5031552;28;20587;-60
2022/03/29 04:26:38;;;;;;;12.70;5.77;;;;;;;19.41;51.83;99888.72;5031181;28;20183;-59
2022/03/29 04:29:04;;;;;;;7.53;4.90;;;;;;;19.40;51.67;99887.06;5031242;28;20265;-60
2022/03/29 04:31:29;;;;;;;10.30;5.80;;;;;;;19.40;51.88;99879.28;5031336;28;20184;-60
2022/03/29 04:33:55;;;;;;;8.60;5.47;;;;;;;19.41;51.67;99883.81;5031074;28;20177;-60
2022/03/29 04:36:20;;;;;;;9.63;5.57;;;;;;;19.40;51.96;99881.31;5031116;28;20172;-60
2022/03/29 04:38:46;;;;;;;7.83;4.73;;;;;;;19.40;51.99;99879.28;5031231;28;20207;-59
2022/03/29 04:41:11;;;;;;;10.70;5.70;;;;;;;19.39;52.18;99868.25;5030957;28;20169;-59
2022/03/29 04:43:37;;;;;;;11.63;5.60;;;;;;;19.41;51.89;99872.34;5031111;28;20187;-60
2022/03/29 04:46:02;;;;;;;7.40;4.90;;;;;;;19.41;52.02;99878.06;5030779;28;20565;-60
2022/03/29 04:48:29;;;;;;;8.73;5.80;;;;;;;19.41;51.84;99872.34;5031199;28;20169;-60
2022/03/29 04:50:54;;;;;;;10.93;6.10;;;;;;;19.40;52.10;99875.59;5030951;28;20176;-60
2022/03/29 04:53:19;;;;;;;9.27;4.73;;;;;;;19.40;51.90;99870.72;5031281;28;20419;-59
2022/03/29 04:55:45;;;;;;;9.20;5.03;;;;;;;19.41;51.76;99868.69;5034060;28;20546;-59
2022/03/29 04:58:10;;;;;;;10.73;4.80;;;;;;;19.40;51.86;99867.00;5034864;28;20231;-60
2022/03/29 05:00:36;;;;;;;8.23;4.77;;;;;;;19.40;51.57;99878.47;5034582;28;20188;-59
2022/03/29 05:03:01;;;;;;;6.83;4.57;;;;;;;19.39;51.88;99871.09;5034490;28;20185;-60
2022/03/29 05:05:27;;;;;;;8.73;5.00;;;;;;;19.40;51.96;99869.88;5034464;28;20655;-61
2022/03/29 05:07:52;;;;;;;6.97;4.97;;;;;;;19.38;51.99;99864.56;5034751;28;20628;-60
2022/03/29 05:10:18;;;;;;;6.77;4.87;;;;;;;19.38;52.23;99864.56;5034060;28;20184;-60
2022/03/29 05:12:47;;;;;;;8.07;5.23;;;;;;;19.38;51.99;99860.88;5034767;28;20192;-59
2022/03/29 05:15:14;;;;;;;6.60;4.80;;;;;;;19.39;51.87;99868.25;5034019;28;20181;-60
2022/03/29 05:17:42;;;;;;;9.10;5.80;;;;;;;19.40;51.72;99864.16;5034181;28;20446;-59
2022/03/29 05:20:07;;;;;;;8.77;5.20;;;;;;;19.40;51.73;99864.16;5034375;28;20839;-59
2022/03/29 05:22:43;;;;;;;7.47;4.90;;;;;;;19.39;51.81;99871.94;5034419;28;20418;-59
2022/03/29 05:25:09;;;;;;;8.30;5.10;;;;;;;19.38;51.65;99876.03;5034153;28;20257;-60
2022/03/29 05:27:34;;;;;;;9.50;4.67;;;;;;;19.39;52.08;99873.97;5034185;28;20450;-60
2022/03/29 05:29:59;;;;;;;7.50;4.73;;;;;;;19.38;52.08;99878.88;5033862;28;20176;-60
2022/03/29 05:32:25;;;;;;;9.30;5.60;;;;;;;19.37;52.03;99882.94;5034162;28;20188;-59
2022/03/29 05:34:50;;;;;;;8.80;4.97;;;;;;;19.39;52.03;99882.56;5034125;28;20160;-60
2022/03/29 05:37:16;;;;;;;7.87;4.80;;;;;;;19.38;51.72;99876.03;5033817;28;20173;-59
2022/03/29 05:39:43;;;;;;;7.20;4.80;;;;;;;19.39;51.92;99877.66;5034125;28;20171;-59
2022/03/29 05:42:09;;;;;;;7.73;4.53;;;;;;;19.37;51.97;99877.22;5033962;28;20541;-60
2022/03/29 05:44:35;;;;;;;8.60;5.10;;;;;;;19.37;52.25;99877.22;5033997;28;20417;-60
2022/03/29 05:49:44;;;;;;;7.80;4.57;;;;;;;19.38;52.46;99878.88;5034075;28;20207;-60
2022/03/29 05:52:09;;;;;;;8.67;4.57;;;;;;;19.36;51.76;99875.59;5033530;28;20415;-59
2022/03/29 05:54:36;;;;;;;6.60;4.80;;;;;;;19.37;51.84;99880.09;5033847;28;20632;-59
2022/03/29 05:57:02;;;;;;;7.47;4.70;;;;;;;19.38;51.80;99878.88;5033506;28;20172;-59
2022/03/29 05:59:27;;;;;;;9.07;4.90;;;;;;;19.38;51.83;99876.03;5033794;28;20486;-59
2022/03/29 06:01:53;;;;;;;7.83;4.80;;;;;;;19.39;51.61;99882.56;5033493;28;20411;-59
2022/03/29 06:04:22;;;;;;;7.60;4.63;;;;;;;19.38;51.93;99878.06;5033896;28;20184;-59
2022/03/29 06:06:49;;;;;;;8.00;5.13;;;;;;;19.38;51.86;99884.63;5032354;28;20631;-60
2022/03/29 06:09:14;;;;;;;10.30;5.60;;;;;;;19.36;51.87;99875.59;5033106;28;20442;-60
2022/03/29 06:11:40;;;;;;;8.47;4.77;;;;;;;19.36;51.97;99881.31;5032657;28;20427;-59
2022/03/29 06:14:05;;;;;;;9.47;4.70;;;;;;;19.37;52.07;99882.94;5032630;28;20206;-59
2022/03/29 06:16:31;;;;;;;11.00;5.03;;;;;;;19.38;51.71;99889.50;5033334;28;20552;-59
2022/03/29 06:18:56;;;;;;;7.50;4.80;;;;;;;19.38;51.60;99887.47;5033561;28;20211;-60
2022/03/29 06:21:24;;;;;;;9.80;4.90;;;;;;;19.37;51.69;99882.94;5033011;28;20511;-60
2022/03/29 06:23:49;;;;;;;9.00;4.43;;;;;;;19.37;51.58;99888.66;5033263;28;20219;-59
2022/03/29 06:26:15;;;;;;;7.03;4.23;;;;;;;19.38;51.90;99889.50;5033018;28;20423;-59
2022/03/29 06:28:42;;;;;;;9.27;5.07;;;;;;;19.38;51.88;99890.34;5032735;28;20644;-59
2022/03/29 06:31:07;;;;;;;8.40;4.93;;;;;;;19.38;52.04;99887.47;5032949;28;20176;-59
2022/03/29 06:33:33;;;;;;;7.27;4.37;;;;;;;19.38;51.60;99887.47;5032973;28;20465;-61
2022/03/29 06:35:58;;;;;;;7.33;4.40;;;;;;;19.37;51.87;99882.94;5032777;28;20177;-60
2022/03/29 06:38:24;;;;;;;8.70;4.30;;;;;;;19.37;51.86;99877.22;5033049;28;20201;-59
2022/03/29 06:40:50;;;;;;;6.93;4.70;;;;;;;19.37;51.85;99876.41;5032946;28;20540;-59
2022/03/29 06:43:16;;;;;;;8.30;4.97;;;;;;;19.37;51.71;99870.69;5032618;28;20184;-60
2022/03/29 06:45:41;;;;;;;12.03;4.53;;;;;;;19.38;52.00;99881.75;5032806;28;20450;-60
2022/03/29 06:48:07;;;;;;;6.90;4.70;;;;;;;19.37;51.97;99876.41;5032610;28;20219;-60
2022/03/29 06:50:33;;;;;;;7.90;4.30;;;;;;;19.37;52.06;99880.09;5032505;28;20180;-59
2022/03/29 06:52:59;;;;;;;9.50;5.30;;;;;;;19.37;51.76;99876.41;5014785;28;20426;-59
2022/03/29 06:55:25;;;;;;;8.10;4.70;;;;;;;19.39;51.72;99880.53;5032690;28;20187;-59
2022/03/29 06:57:50;;;;;;;7.23;4.23;;;;;;;19.38;51.95;99880.91;5032381;28;20818;-60
2022/03/29 07:00:17;;;;;;;7.10;4.60;;;;;;;19.37;52.02;99887.88;5032262;28;20243;-59
2022/03/29 07:02:43;;;;;;;6.73;4.90;;;;;;;19.38;51.68;99880.91;5031967;28;20211;-60
2022/03/29 07:05:08;;;;;;;8.73;4.47;;;;;;;19.36;51.91;99887.03;5032427;28;20430;-59
2022/03/29 07:07:34;;;;;;;10.23;5.47;;;;;;;19.38;51.87;99883.78;5013614;28;20918;-59
2022/03/29 07:12:51;;;;;;;7.80;4.70;;;;;;;19.38;51.57;99886.63;5031646;28;20191;-59
2022/03/29 07:15:19;;;;;;;7.80;4.70;;;;;;;19.36;51.69;99895.63;5032376;28;20481;-60
2022/03/29 07:17:45;;;;;;;8.47;4.33;;;;;;;19.36;51.68;99892.75;5031083;28;20450;-59
2022/03/29 07:20:11;;;;;;;5.50;3.87;;;;;;;19.35;51.58;99888.25;5031841;28;20557;-59
2022/03/29 07:22:37;;;;;;;6.43;4.30;;;;;;;19.37;51.68;99897.25;5032135;28;20237;-60
2022/03/29 07:25:03;;;;;;;6.03;4.33;;;;;;;19.37;51.81;99894.41;5030255;28;20419;-60
2022/03/29 07:27:28;;;;;;;6.30;4.63;;;;;;;19.39;51.63;99891.97;5031161;28;20711;-60
2022/03/29 07:29:53;;;;;;;7.70;4.30;;;;;;;19.39;52.03;99894.00;5031888;28;20246;-60
2022/03/29 07:32:22;;;;;;;6.00;3.77;;;;;;;19.38;51.80;99889.50;5031861;28;20238;-60
2022/03/29 07:34:47;;;;;;;8.20;4.57;;;;;;;19.38;51.58;99895.22;5031983;28;20556;-60
2022/03/29 07:37:13;;;;;;;6.30;3.93;;;;;;;19.38;51.63;99893.19;5031483;28;20419;-60
2022/03/29 07:39:40;;;;;;;8.10;4.60;;;;;;;19.38;51.54;99892.38;5031563;28;20258;-60
2022/03/29 07:42:06;;;;;;;6.03;3.93;;;;;;;19.38;51.59;99889.50;5031616;28;20184;-60
2022/03/29 07:44:32;;;;;;;6.30;4.43;;;;;;;19.38;52.16;99900.94;5032011;28;20427;-59
2022/03/29 07:46:57;;;;;;;7.83;3.97;;;;;;;19.39;51.40;99900.56;5031465;28;20223;-60
2022/03/29 07:49:23;;;;;;;7.87;4.27;;;;;;;19.38;51.40;99896.06;5031610;28;20187;-60
2022/03/29 07:51:48;;;;;;;6.10;3.97;;;;;;;19.39;51.82;99896.88;5031570;28;20192;-59
2022/03/29 07:54:14;;;;;;;7.80;4.00;;;;;;;19.38;51.79;99904.66;5031746;28;20542;-59
2022/03/29 07:56:39;;;;;;;6.03;4.37;;;;;;;19.40;51.48;99893.63;5031490;28;20548;-59
2022/03/29 07:59:05;;;;;;;6.60;4.47;;;;;;;19.41;51.53;99897.31;5031281;28;20200;-59
2022/03/29 08:01:30;;;;;;;8.93;5.20;;;;;;;19.40;51.80;99899.34;5031589;28;20191;-59
2022/03/29 08:03:56;;;;;;;6.20;3.80;;;;;;;19.41;51.74;99888.72;5031473;28;20242;-59
2022/03/29 08:06:21;;;;;;;7.20;4.50;;;;;;;19.40;51.49;99884.19;5031445;28;20200;-59
2022/03/29 08:08:47;;;;;;;6.40;4.27;;;;;;;19.40;51.41;99882.16;5031259;28;20200;-60
2022/03/29 08:11:13;;;;;;;6.63;3.93;;;;;;;19.40;51.52;99887.88;5031331;28;20580;-59
2022/03/29 08:13:38;;;;;;;6.30;4.10;;;;;;;19.41;51.74;99888.72;5030632;28;20635;-60
2022/03/29 08:16:04;;;;;;;7.90;4.17;;;;;;;19.39;51.73;99891.97;5031365;28;20292;-59
2022/03/29 08:18:30;;;;;;;6.93;4.67;;;;;;;19.39;51.56;99880.53;5031156;28;20204;-59
2022/03/29 08:20:56;;;;;;;6.93;4.30;;;;;;;19.41;51.94;99877.28;5031268;28;20210;-59
2022/03/29 08:23:21;;;;;;;8.10;4.77;;;;;;;19.40;51.65;99887.88;5030264;28;20208;-59
2022/03/29 08:25:47;;;;;;;6.50;3.97;;;;;;;19.41;51.56;99877.28;5028538;28;22090;-60
2022/03/29 08:28:13;;;;;;;6.07;4.40;;;;;;;19.39;51.72;99871.94;5031290;28;20719;-59
2022/03/29 08:30:38;;;;;;;8.27;3.97;;;;;;;19.39;51.62;99874.81;5034460;28;20647;-59
2022/03/29 08:33:04;;;;;;;8.00;4.77;;;;;;;19.40;51.29;99881.31;5035196;28;20450;-59
2022/03/29 08:35:30;;;;;;;6.30;4.53;;;;;;;19.40;51.28;99865.00;5035426;28;20590;-60
2022/03/29 08:37:56;;;;;;;8.67;4.37;;;;;;;19.40;51.52;99870.72;5034770;28;20693;-60
2022/03/29 08:40:27;;;;;;;6.30;3.83;;;;;;;19.40;51.53;99861.28;5034970;28;20652;-59
2022/03/29 08:42:55;;;;;;;7.03;4.40;;;;;;;19.41;51.44;99872.34;5034415;28;20515;-59
2022/03/29 08:45:25;;;;;;;5.63;3.40;;;;;;;19.39;51.48;99863.34;5035085;28;20985;-59
2022/03/29 08:47:50;;;;;;;6.23;4.20;;;;;;;19.38;51.98;99858.84;5034852;28;20454;-60
2022/03/29 08:50:16;;;;;;;5.80;3.77;;;;;;;19.37;51.68;99860.03;5034920;28;20422;-60
2022/03/29 08:52:42;;;;;;;6.47;4.37;;;;;;;19.39;51.55;99849.03;5034844;28;20184;-60
2022/03/29 08:55:08;;;;;;;5.67;3.80;;;;;;;19.40;51.35;99841.25;5034650;28;20596;-59
2022/03/29 08:57:34;;;;;;;4.50;3.47;;;;;;;19.39;51.55;99836.75;5034651;28;20191;-59
2022/03/29 09:00:00;;;;;;;6.37;4.17;;;;;;;19.40;51.49;99832.66;5034819;28;20437;-60
2022/03/29 09:02:25;;;;;;;8.17;4.70;;;;;;;19.41;51.50;99834.34;5034713;28;20423;-59
2022/03/29 09:05:13;;;;;;;7.10;4.10;;;;;;;19.39;51.39;99837.59;5034394;28;20543;-60
2022/03/29 09:08:08;;;;;;;5.97;4.00;;;;;;;19.40;51.32;99824.91;5034659;28;20227;-60
2022/03/29 09:10:44;;;;;;;7.70;4.50;;;;;;;19.41;51.33;99825.75;5033343;28;20438;-59
2022/03/29 09:13:22;;;;;;;6.17;4.30;;;;;;;19.41;51.48;99829.41;5034161;28;20418;-59
2022/03/29 09:15:48;;;;;;;7.40;4.57;;;;;;;19.38;51.79;99827.34;5016420;28;20427;-59
2022/03/29 09:18:14;;;;;;;5.30;3.93;;;;;;;19.38;51.64;99827.34;5034225;28;20465;-59
2022/03/29 09:20:40;;;;;;;6.47;4.20;;;;;;;19.37;51.60;99819.97;5034341;28;20898;-59
2022/03/29 09:23:20;;;;;;;5.30;3.77;;;;;;;19.38;51.50;99820.81;5033912;28;20180;-59
2022/03/29 09:25:49;;;;;;;6.90;4.27;;;;;;;19.36;51.48;99818.34;5034144;28;20271;-60
2022/03/29 09:28:16;;;;;;;5.03;3.47;;;;;;;19.38;51.59;99815.06;5034000;28;21210;-60
2022/03/29 09:30:50;;;;;;;7.80;4.37;;;;;;;19.39;51.39;99817.53;5034123;28;20430;-59
2022/03/29 09:33:17;;;;;;;7.07;3.97;;;;;;;19.39;51.32;99811.00;5034136;28;20468;-59
2022/03/29 09:36:00;;;;;;;5.23;3.53;;;;;;;19.38;51.57;99801.59;5034329;28;20408;-59
2022/03/29 09:38:34;;;;;;;6.27;3.87;;;;;;;19.41;51.36;99802.84;5033966;28;20963;-60
2022/03/29 09:41:00;;;;;;;4.90;3.77;;;;;;;19.39;51.45;99799.53;5033340;28;20410;-60
2022/03/29 09:43:27;;;;;;;6.90;4.27;;;;;;;19.37;51.51;99796.25;5032304;28;20519;-60
2022/03/29 09:45:59;;;;;;;8.13;4.63;;;;;;;19.38;51.29;99786.44;5033771;28;20577;-60
2022/03/29 09:48:35;;;;;;;7.10;3.40;;;;;;;19.37;51.56;99785.63;5033707;28;20462;-59
2022/03/29 09:51:07;;;;;;;6.17;4.50;;;;;;;19.37;51.52;99770.50;5033537;28;20443;-60
2022/03/29 09:53:47;;;;;;;6.07;3.90;;;;;;;19.36;51.81;99766.00;5033704;28;20856;-59
2022/03/29 09:56:16;;;;;;;6.40;4.03;;;;;;;19.36;51.39;99758.22;5032323;28;20423;-59
2022/03/29 09:58:42;;;;;;;5.80;3.23;;;;;;;19.36;51.59;99752.50;5033029;28;20454;-59
2022/03/29 10:01:24;;;;;;;5.13;3.60;;;;;;;19.37;51.39;99759.84;5033064;28;20936;-59
2022/03/29 10:03:53;;;;;;;6.30;4.00;;;;;;;19.35;51.55;99748.00;5033535;28;20161;-59
2022/03/29 10:06:20;;;;;;;6.60;4.00;;;;;;;19.35;51.68;99747.16;5033648;28;20430;-59
2022/03/29 10:11:33;;;;;;;7.13;3.93;;;;;;;19.37;51.63;99733.28;5033137;28;20418;-59
2022/03/29 10:14:00;;;;;;;5.63;4.00;;;;;;;19.35;51.59;99736.56;5032797;28;20513;-59
2022/03/29 10:16:26;;;;;;;4.43;3.03;;;;;;;19.35;51.37;99732.84;5015597;28;20423;-59
2022/03/29 10:18:52;;;;;;;5.40;4.07;;;;;;;19.35;51.37;99730.81;5015608;28;20459;-60
2022/03/29 10:21:17;;;;;;;6.13;4.00;;;;;;;19.35;51.39;99719.38;5033193;28;20431;-60
2022/03/29 10:23:49;;;;;;;6.93;4.17;;;;;;;19.36;51.42;99715.28;5032234;28;20180;-59
2022/03/29 10:26:18;;;;;;;6.23;4.13;;;;;;;19.35;51.60;99707.94;5033067;28;20180;-59
2022/03/29 10:28:45;;;;;;;6.20;4.10;;;;;;;19.35;51.39;99707.09;5015619;28;20517;-59
2022/03/29 10:31:34;;;;;;;6.43;4.00;;;;;;;19.36;51.55;99698.09;5032107;28;20910;-59
2022/03/29 10:34:18;;;;;;;5.90;3.60;;;;;;;19.34;51.61;99697.69;5033016;28;20514;-59
2022/03/29 10:37:09;;;;;;;5.73;3.80;;;;;;;19.36;51.29;99692.38;5032411;28;20486;-59
2022/03/29 10:39:53;;;;;;;5.73;3.67;;;;;;;19.35;51.53;99690.75;5032850;28;20470;-59
2022/03/29 10:42:25;;;;;;;6.60;3.63;;;;;;;19.34;51.55;99677.66;5032774;28;20415;-59
2022/03/29 10:45:18;;;;;;;6.00;3.27;;;;;;;19.35;51.47;99679.31;5032750;28;20505;-59
2022/03/29 10:47:48;;;;;;;5.80;3.57;;;;;;;19.35;51.47;99667.84;5032699;28;20922;-59
2022/03/29 10:50:14;;;;;;;5.13;3.30;;;;;;;19.33;51.42;99669.47;5033037;28;20473;-59
2022/03/29 10:52:42;;;;;;;5.93;4.10;;;;;;;19.33;51.69;99658.84;5032164;28;20431;-59
2022/03/29 10:55:15;;;;;;;5.80;3.90;;;;;;;19.32;51.64;99660.06;5032614;28;20811;-60
2022/03/29 10:57:40;;;;;;;5.00;3.23;;;;;;;19.33;51.53;99650.28;5032414;28;20430;-59
2022/03/29 11:00:11;;;;;;;7.23;3.83;;;;;;;19.35;51.40;99650.69;5032373;28;20926;-59
2022/03/29 11:02:37;;;;;;;5.70;3.53;;;;;;;19.32;51.79;99650.66;5032611;28;20199;-59
2022/03/29 11:05:11;;;;;;;7.50;4.17;;;;;;;19.33;51.62;99653.13;5030651;28;20789;-59
2022/03/29 11:07:38;;;;;;;5.43;3.53;;;;;;;19.34;51.58;99643.31;5032590;28;20222;-59
2022/03/29 11:10:11;;;;;;;5.40;3.70;;;;;;;19.35;51.43;99644.94;5031232;28;20509;-59
2022/03/29 11:12:49;;;;;;;5.30;3.60;;;;;;;19.35;51.37;99638.41;5032592;28;20766;-59
2022/03/29 11:15:35;;;;;;;6.23;3.67;;;;;;;19.34;51.68;99631.88;5032114;28;20443;-59
2022/03/29 11:18:01;;;;;;;6.57;3.23;;;;;;;19.35;51.77;99627.78;5032099;28;20510;-59
2022/03/29 11:20:29;;;;;;;4.80;3.50;;;;;;;19.36;51.65;99620.03;5031619;28;20937;-60
2022/03/29 11:22:59;;;;;;;5.13;3.73;;;;;;;19.36;52.08;99626.56;5032256;28;20438;-60
2022/03/29 11:25:24;;;;;;;5.20;3.70;;;;;;;19.36;51.95;99617.97;5014357;28;20510;-59
2022/03/29 11:27:50;;;;;;;4.47;3.00;;;;;;;19.37;51.69;99611.00;5032374;28;20423;-59
2022/03/29 11:30:15;;;;;;;7.13;3.60;;;;;;;19.39;51.69;99610.63;5031827;28;20191;-59
2022/03/29 11:32:42;;;;;;;4.70;3.37;;;;;;;19.37;51.50;99611.00;5032112;28;20543;-59
2022/03/29 11:35:08;;;;;;;6.30;3.67;;;;;;;19.39;51.73;99607.75;5031965;28;20191;-60
2022/03/29 11:37:40;;;;;;;5.70;3.23;;;;;;;19.39;51.36;99608.59;5031918;28;20823;-60
2022/03/29 11:40:07;;;;;;;5.90;3.60;;;;;;;19.39;51.47;99602.84;5031893;28;20215;-60